Kezdőlap
METAR-TAF:

METAR-TAF

Repülőterek :

Oral, Kazahsztán

földrajzi szélesség: 51-15N, földrajzi hosszúság: 051-17E, magasság: 36 m

Jelenlegi meteorológiai megfigyelések

A jelentés 2 órával és 0 perccel ezelõtt készült, 12:30 UTC
Északi szél 6 kt
Hőmérséklet -1°C
Páratartalom 34%
Légköri nyomás 1043 hPa
Látótávolság 10 km, vagy több
felhőtlen 1500 m magasságban, és nincs gomolyfelhõ

METAR: UARR 161230Z 01003MPS CAVOK M01/M15 Q1043 R04/CLRD70 NOSIG RMK QFE778/1038

Idő: 19:30 (14:30 UTC)

Előrejelzés

A jelentés 3 órával és 30 perccel ezelõtt készült, 11:00 UTC
Az előrejelzés 16-én 12 óra UTC és 16-én 21 óra UTC között érvényes
Különbözõ irányokból fújó szél 4 kt
Látótávolság 10 km, vagy több
felhőtlen 1500 m magasságban, és nincs gomolyfelhõ
16-én 12 óra UTC és 16-én 15 óra UTC között ideiglenes
Észak-északkeleti szél 10 kt

TAF: UARR 161100Z 1612/1621 VRB02MPS CAVOK TEMPO 1612/1615 02005MPS

Meteorológiai megfigyelések és előrejelzések több, mint 4000 repülőtéren (METAR és TAF jelentéseket).

A térképen piros és sárga pontok jelzik az elérhető meteorológiai állomásokat.

Mozgassa az egeret a pont fölött, hogy megjelenjen az állomás neve.

Azután kattintson az időjárási megfigyelések és előrejelzések megtekintéséhez.

A térkép megváltoztatása: kattintson a fekete keresztel jelölt zöld gombra ráközelítéshez, a vonallal jelölt zöld gombra távolításhoz, vagy a zöld nyilakra a szomszédos térképek eléréséhez.


METAR-TAF: